João Fonseca

Olheiro - Fluminense
6 Jan 2028
Quinta-feira
Processo

Personalidade

Adaptabilidade (16) Ambição (16) Controvérsia (3) Lealdade (12) Pressão (14) Profissionalismo (17) Espírito Esportivo (14) Temperamento (7)

Perfil

Estilo de Treinamento Democrático
Licença Continental Pro
Determinação 8
Gestão de Pessoas 6
Motivação 7
Disciplina 10
Satisfação no Trabalho
48%
Fadiga
0%
Função Olheiro
Salário 32.7K p/s
Contrato 14.03.2028

Desempenho

Comportamento Bom
Eficácia do Treinamento
24%
Desenvolvimento do Jogador
35%
Prevenção de Lesões
30%
Implementação Tática
60%

Eventos Recentes

Negociação de contrato iniciada agora
Participou de uma reunião de recrutamento agora
Recomendou um alvo de transferência agora
Recomendou um alvo de transferência agora
Recomendou um alvo de transferência agora
Negociação de contrato iniciada 7d atrás
Negociação de contrato iniciada 7d atrás
Negociação de contrato iniciada 7d atrás

Monitorando agora

134
Jogador Clube Status Habilidade Confiança Observado Última observação Último voto
Assane Diao Lazio Ativo 150 / 157 40% 1 28.12.2027 -
Brennan Johnson Stoke City Ativo 152 / 150 40% 1 28.12.2027 -
Arthur Cabral Botafogo Ativo 137 / 123 40% 1 28.12.2027 -
Artur Botafogo Ativo 125 / 130 65% 1 13.12.2027 Aprovar
Lucas Moura Sport Recife Perdido 126 / 134 65% 1 06.12.2027 -
Angus Gunn San Jose Earthquakes Ativo 124 / 120 40% 1 30.11.2027 -
Dayne St. Clair Inter Miami CF Ativo 135 / 130 40% 1 30.11.2027 -
Giorgi Mamardashvili Newcastle United Ativo 176 / 173 40% 1 30.11.2027 -
Breno Bidon Corinthians Ativo 139 / 139 40% 2 29.11.2027 -
Gabriel Díaz Patronato Ativo 111 / 113 40% 2 27.11.2027 -
Juan Pablo Córdoba Gimnasia y Esgrima Ativo 118 / 109 40% 2 27.11.2027 -
Óscar Díaz Miramar Misiones Ativo 116 / 107 40% 1 27.11.2027 -
Brooke Norton-Cuffy Inter Miami CF Ativo 143 / 143 40% 2 23.11.2027 -
Tobías Leiva Estudiantes Ativo 111 / 120 40% 1 23.11.2027 -
Mauricio Amaro Atlanta United FC Ativo 123 / 124 40% 5 22.11.2027 -
Valentín Serrano Arsenal Ativo 111 / 118 40% 2 22.11.2027 -
Maik Atlético Mineiro Ativo 120 / 131 40% 2 22.11.2027 -
Ilay Feingold New England Revolution Ativo 109 / 122 40% 2 21.11.2027 -
David Sotelo Persib Ativo 121 / 118 40% 2 21.11.2027 -
Samuel Gidi FC Cincinnati Ativo 125 / 122 40% 1 19.11.2027 -
Ralph Orquin Seattle Sounders Ativo 124 / 122 40% 1 19.11.2027 -
Lucas Monzón Alvarado Ativo 106 / 112 40% 1 19.11.2027 -
Alexsander Atlético Mineiro Ativo 126 / 128 40% 1 18.11.2027 -
Hamzat Ojediran Colorado Rapids Ativo 119 / 120 40% 1 17.11.2027 -
Cauan Barros Vasco da Gama Ativo 130 / 128 40% 1 17.11.2027 -
Ignacio Perruzzi San Lorenzo Ativo 118 / 125 40% 1 17.11.2027 -
Tomás Porra Barracas Central Ativo 110 / 115 40% 1 14.11.2027 -
Tomás Ferreyra Defensores Unidos Ativo 115 / 108 40% 1 13.11.2027 -
José Mercado Union Magdalena Ativo 102 / 107 40% 1 13.11.2027 -
Mateo Mendoza Godoy Cruz Ativo 136 / 128 40% 1 09.11.2027 -
Lucas Agazzi Defensor Sporting Ativo 126 / 124 40% 1 06.11.2027 -
Santiago González Tigre Ativo 137 / 132 40% 1 05.11.2027 -
Sondre Auklend Bodo/Glimt Ativo 139 / 124 40% 1 03.11.2027 -
Pedro Martins São Paulo Ativo 102 / 112 65% 1 12.07.2027 Aprovar
Dudu Vitória Ativo 115 / 121 65% 1 03.06.2027 Aprovar
Francisco Moura Lusitânia Lourosa Ativo 127 / 143 40% 2 21.12.2026 -
Pau Víctor AVS Ativo 146 / 130 40% 7 14.12.2026 -
Barış Alper Yılmaz Galatasaray Ativo 152 / 157 40% 6 30.11.2026 -
Giovanni Simeone Torino Ativo 149 / 148 40% 1 30.11.2026 -
Ansu Fati Monaco Ativo 148 / 140 40% 1 29.11.2026 -
Ismaïla Sarr Crystal Palace Ativo 145 / 148 40% 1 29.11.2026 -
Dodi Lukébakio Benfica Ativo 136 / 143 40% 5 28.11.2026 -
Esteban Lepaul Stade Rennais Ativo 130 / 126 40% 1 28.11.2026 -
Leandro Barreiro Benfica Ativo 140 / 141 40% 2 27.11.2026 -
Geny Sporting CP Ativo 144 / 148 40% 2 27.11.2026 -
Pepê Porto Ativo 148 / 150 40% 1 26.11.2026 -
Gabriel Jesus Barcelona Ativo 158 / 161 40% 5 22.11.2026 -
Marco Asensio Fenerbahce Ativo 153 / 163 40% 1 22.11.2026 -
William Gomes Porto Ativo 146 / 142 40% 2 21.11.2026 -
Renan Lodi Atlético Mineiro Ativo 140 / 142 40% 3 21.11.2026 -
Jesús Ricardo Angulo Toluca Ativo 128 / 128 40% 2 21.11.2026 -
Lucas Veríssimo Santos Ativo 141 / 133 40% 2 21.11.2026 -
William Cruzeiro Ativo 137 / 128 40% 2 20.11.2026 -
Luís Esteves Atlas Ativo 125 / 122 40% 2 20.11.2026 -
Gonçalo Inácio Sporting CP Ativo 156 / 149 40% 1 19.11.2026 -
Diego Rossi Monterrey Ativo 132 / 129 40% 1 19.11.2026 -
Nicolò Zaniolo Udinese Ativo 136 / 150 40% 1 19.11.2026 -
Randal Kolo Muani Juventus Ativo 148 / 140 40% 3 17.11.2026 -
Jens Odgaard Bologna Ativo 146 / 128 40% 1 17.11.2026 -
Víctor Gómez Braga Ativo 148 / 138 40% 3 16.11.2026 -
Matheus Pereira Cruzeiro Ativo 137 / 138 40% 1 16.11.2026 -
Leon Goretzka Aston Villa Ativo 161 / 147 40% 2 14.11.2026 -
Sikou Niakaté Braga Ativo 127 / 143 40% 1 14.11.2026 -
Petar Musa Adana Demirspor Ativo 129 / 133 40% 3 13.11.2026 -
Heorhii Sudakov Benfica Ativo 136 / 154 40% 5 12.11.2026 -
Tariq Lamptey Queens Park Rangers Ativo 128 / 125 40% 1 11.11.2026 -
Dominic Calvert-Lewin Leeds United Ativo 139 / 132 40% 7 08.11.2026 -
Romelu Castagne KV Oostende Ativo 136 / 135 40% 5 08.11.2026 -
Christian Krasnodar Ativo 132 / 136 40% 1 07.11.2026 -
Youssef En-Nesyri Al-Ittihad Ativo 142 / 148 40% 4 04.11.2026 -
Dávid Strelec Middlesbrough Ativo 128 / 138 40% 1 04.11.2026 -
Marcos Antonio Sport Recife Ativo 141 / 138 40% 2 01.11.2026 -
Taty Castellanos West Ham United Ativo 143 / 141 40% 1 01.11.2026 -
Andreas Pereira Palmeiras Ativo 145 / 132 40% 1 01.11.2026 -
Gérson Cruzeiro Ativo 134 / 136 40% 1 01.11.2026 -
Saša Lukić Ipswich Town Ativo 149 / 149 40% 1 29.10.2026 -
Caio Alexandre Bahia Ativo 142 / 132 40% 1 29.10.2026 -
Sander Berge Fulham Ativo 135 / 142 40% 1 29.10.2026 -
Andrés Gómez Vasco da Gama Ativo 125 / 131 40% 1 28.10.2026 -
Steven Bergwijn Al-Ittihad Ativo 154 / 136 40% 3 27.10.2026 -
Santiago Castro AS Roma Ativo 133 / 147 40% 1 27.10.2026 -
Fabrício Bruno Cruzeiro Ativo 130 / 140 40% 1 25.10.2026 -
Danilo Botafogo Ativo 131 / 137 40% 1 25.10.2026 -
Roberto Fernández Braga Ativo 150 / 129 40% 5 19.10.2026 -
Leo Ceara Kashima Antlers Ativo 123 / 125 40% 1 19.10.2026 -
Rômulo RB Leipzig Ativo 152 / 134 40% 1 16.10.2026 -
Brian Brobbey Sunderland Ativo 127 / 135 40% 3 15.10.2026 -
Raheem Sterling Feyenoord Ativo 137 / 143 40% 1 14.10.2026 -
Félix Lemaréchal Club Brugge Ativo 128 / 143 40% 1 14.10.2026 -
Soufiane Rahimi Guadalajara Ativo 134 / 136 40% 2 13.10.2026 -
Jean-Philippe Mateta Crystal Palace Ativo 149 / 150 40% 4 12.10.2026 -
Ángel Correa River Plate Ativo 143 / 147 40% 3 12.10.2026 -
Nuno Santos Sporting CP Ativo 150 / 148 40% 2 12.10.2026 -
Andrea Pinamonti Lazio Ativo 125 / 131 40% 2 12.10.2026 -
Alexey Miranchuk St. Gallen Ativo 130 / 132 40% 3 10.10.2026 -
Vangelis Pavlidis Twente Ativo 149 / 151 40% 2 10.10.2026 -
Fotis Ioannidis Rio Ave Ativo 141 / 124 40% 1 09.10.2026 -
Joaquín Panichelli Le Havre AC Ativo 152 / 130 40% 2 08.10.2026 -
Gonçalo Ramos AC Milan Ativo 144 / 151 40% 1 08.10.2026 -
Lewis Cook Bournemouth Ativo 139 / 144 40% 1 06.10.2026 -
Jean Lucas Bahia Perdido 128 / 126 40% 1 06.10.2026 -
Matías Fernández-Pardo Newcastle United Ativo 138 / 145 40% 1 06.10.2026 -
Fredrik Aursnes Benfica Ativo 158 / 144 40% 1 05.10.2026 -
Yoan Bonny Inter Ativo 152 / 146 40% 2 29.09.2026 -
Alberto Costa Porto Ativo 138 / 133 40% 1 28.09.2026 -
Ivan Toney Al-Ahli Ativo 163 / 160 40% 4 25.09.2026 -
Che Adams Torino Ativo 128 / 136 40% 1 25.09.2026 -
Mateo Pellegrino Fiorentina Ativo 132 / 134 40% 1 25.09.2026 -
Borja Sainz Fiorentina Ativo 136 / 137 40% 2 22.09.2026 -
Noah Okafor Leeds United Ativo 145 / 138 40% 1 20.09.2026 -
Gonzalo Fulham Ativo 136 / 156 40% 1 17.09.2026 -
Arthur Santos Ativo 140 / 138 40% 1 16.09.2026 -
Aníbal Moreno River Plate Ativo 137 / 126 40% 1 16.09.2026 -
Agustín Palavecino Cruz Azul Ativo 131 / 141 40% 1 15.09.2026 -
Carlos Vicente Birmingham Ativo 145 / 146 40% 1 14.09.2026 -
Pablo Rosario Porto Ativo 138 / 132 40% 1 09.09.2026 -
Breel Embolo Atlanta United FC Ativo 131 / 138 40% 2 06.09.2026 -
Sergi Altimira Sporting CP Ativo 125 / 127 40% 1 06.09.2026 -
Luis Sinisterra Cruzeiro Ativo 131 / 136 40% 1 06.09.2026 -
Eddie Nketiah Crystal Palace Ativo 127 / 150 40% 2 30.08.2026 -
Jhon Arias Palmeiras Ativo 137 / 137 40% 1 30.08.2026 -
Thiago Brentford Ativo 148 / 138 40% 1 30.08.2026 -
Kerem Aktürkoğlu Fenerbahce Ativo 131 / 150 40% 1 30.08.2026 -
Amine Gouiri Olympique de Marseille Ativo 138 / 134 40% 2 22.08.2026 -
Oussama Idrissi Pachuca Ativo 136 / 142 40% 1 17.08.2026 -
Hwang In-Beom Porto Ativo 137 / 134 40% 1 17.08.2026 -
Alexander Bah Benfica Ativo 130 / 137 40% 1 16.08.2026 -
Jack Hinshelwood Brighton Ativo 151 / 138 40% 1 15.08.2026 -
Gonçalo Guedes Real Sociedad Ativo 152 / 135 40% 2 08.08.2026 -
Marcos Llorente Atlético Madrid Ativo 149 / 165 40% 1 07.08.2026 -
Jorge De Frutos Rayo Vallecano Ativo 148 / 152 40% 1 07.08.2026 -
Joshua Zirkzee Manchester United Ativo 151 / 137 40% 1 07.08.2026 -
Ricardo Horta Braga Ativo 141 / 135 40% 2 06.08.2026 -
Maximilian Beier Borussia Dortmund Ativo 141 / 149 40% 2 03.08.2026 -